Schedule Details


Flight Number: CTN441
Departure: Vienna International Airport (LOWW) at 10:10
Arrival: Zagreb / Pleso (LDZA) at 11:05
Route: SASAL?DCT?SUNIS?DCT?PETOV

Weather Information
LOWW 192120Z VRB02KT 1200 0300S R29/0400U FG SCT001 SCT002 08/08 Q1017 BECMG 0500 FG VV002
LDZA 192100Z 22002KT CAVOK 10/07 Q1017 NOSIG
Schedule Frequency

Route Map